sensor_id;sensor_type;location;lat;lon;timestamp;temperature;humidity
46752;DHT22;32497;48.936;9.270;2023-06-14T00:02:09;15.70;50.30
46752;DHT22;32497;48.936;9.270;2023-06-14T00:07:10;15.70;50.90
46752;DHT22;32497;48.936;9.270;2023-06-14T00:12:12;15.60;51.40
46752;DHT22;32497;48.936;9.270;2023-06-14T00:17:13;15.60;51.40
46752;DHT22;32497;48.936;9.270;2023-06-14T00:22:14;15.40;51.90
46752;DHT22;32497;48.936;9.270;2023-06-14T00:27:17;15.20;53.20
46752;DHT22;32497;48.936;9.270;2023-06-14T00:32:18;15.10;54.80
46752;DHT22;32497;48.936;9.270;2023-06-14T00:37:20;15.10;53.80
46752;DHT22;32497;48.936;9.270;2023-06-14T00:42:26;15.10;54.10
46752;DHT22;32497;48.936;9.270;2023-06-14T00:47:28;15.00;54.10
46752;DHT22;32497;48.936;9.270;2023-06-14T00:52:29;15.10;54.30
46752;DHT22;32497;48.936;9.270;2023-06-14T00:57:32;14.90;53.20
46752;DHT22;32497;48.936;9.270;2023-06-14T01:02:33;14.70;53.40
46752;DHT22;32497;48.936;9.270;2023-06-14T01:07:43;14.80;54.40
46752;DHT22;32497;48.936;9.270;2023-06-14T01:12:53;14.70;55.50
46752;DHT22;32497;48.936;9.270;2023-06-14T01:17:56;14.70;55.60
46752;DHT22;32497;48.936;9.270;2023-06-14T01:22:59;14.50;56.20
46752;DHT22;32497;48.936;9.270;2023-06-14T01:28:02;14.40;55.70
46752;DHT22;32497;48.936;9.270;2023-06-14T01:33:05;14.50;55.90
46752;DHT22;32497;48.936;9.270;2023-06-14T01:38:08;14.40;56.60
46752;DHT22;32497;48.936;9.270;2023-06-14T01:43:10;14.20;57.10
46752;DHT22;32497;48.936;9.270;2023-06-14T01:48:12;14.10;57.60
46752;DHT22;32497;48.936;9.270;2023-06-14T01:53:16;14.00;58.10
46752;DHT22;32497;48.936;9.270;2023-06-14T01:58:17;13.90;56.80
46752;DHT22;32497;48.936;9.270;2023-06-14T02:03:18;13.80;56.80
46752;DHT22;32497;48.936;9.270;2023-06-14T02:08:22;14.00;57.80
46752;DHT22;32497;48.936;9.270;2023-06-14T02:13:23;14.10;56.70
46752;DHT22;32497;48.936;9.270;2023-06-14T02:18:25;14.00;57.40
46752;DHT22;32497;48.936;9.270;2023-06-14T02:23:27;13.80;57.90
46752;DHT22;32497;48.936;9.270;2023-06-14T02:28:28;13.70;60.20
46752;DHT22;32497;48.936;9.270;2023-06-14T02:33:30;13.70;62.60
46752;DHT22;32497;48.936;9.270;2023-06-14T02:38:32;13.70;63.20
46752;DHT22;32497;48.936;9.270;2023-06-14T02:43:33;13.60;64.60
46752;DHT22;32497;48.936;9.270;2023-06-14T02:48:34;13.60;64.80
46752;DHT22;32497;48.936;9.270;2023-06-14T02:53:37;13.50;64.50
46752;DHT22;32497;48.936;9.270;2023-06-14T02:58:38;13.40;65.80
46752;DHT22;32497;48.936;9.270;2023-06-14T03:03:40;13.40;64.90
46752;DHT22;32497;48.936;9.270;2023-06-14T03:08:42;13.20;64.90
46752;DHT22;32497;48.936;9.270;2023-06-14T03:13:48;13.00;66.30
46752;DHT22;32497;48.936;9.270;2023-06-14T03:18:50;13.10;67.30
46752;DHT22;32497;48.936;9.270;2023-06-14T03:23:52;13.00;66.20
46752;DHT22;32497;48.936;9.270;2023-06-14T03:28:54;13.00;67.40
46752;DHT22;32497;48.936;9.270;2023-06-14T03:33:57;12.90;67.20
46752;DHT22;32497;48.936;9.270;2023-06-14T03:38:59;12.80;67.00
46752;DHT22;32497;48.936;9.270;2023-06-14T03:44:01;12.80;66.90
46752;DHT22;32497;48.936;9.270;2023-06-14T03:49:02;12.70;65.40
46752;DHT22;32497;48.936;9.270;2023-06-14T03:54:05;13.10;66.20
46752;DHT22;32497;48.936;9.270;2023-06-14T03:59:06;13.10;66.40
46752;DHT22;32497;48.936;9.270;2023-06-14T04:04:08;13.00;66.30
46752;DHT22;32497;48.936;9.270;2023-06-14T04:09:11;13.10;66.80
46752;DHT22;32497;48.936;9.270;2023-06-14T04:14:12;13.30;68.00
46752;DHT22;32497;48.936;9.270;2023-06-14T04:19:13;13.50;65.80
46752;DHT22;32497;48.936;9.270;2023-06-14T04:24:21;13.60;66.60
46752;DHT22;32497;48.936;9.270;2023-06-14T04:29:26;13.60;66.30
46752;DHT22;32497;48.936;9.270;2023-06-14T04:34:33;13.70;66.00
46752;DHT22;32497;48.936;9.270;2023-06-14T04:39:36;13.80;66.80
46752;DHT22;32497;48.936;9.270;2023-06-14T04:44:38;13.80;66.20
46752;DHT22;32497;48.936;9.270;2023-06-14T04:49:39;13.90;66.60
46752;DHT22;32497;48.936;9.270;2023-06-14T04:54:42;14.20;66.10
46752;DHT22;32497;48.936;9.270;2023-06-14T04:59:44;14.50;66.00
46752;DHT22;32497;48.936;9.270;2023-06-14T05:04:45;14.60;64.80
46752;DHT22;32497;48.936;9.270;2023-06-14T05:09:48;14.50;65.50
46752;DHT22;32497;48.936;9.270;2023-06-14T05:14:49;14.50;66.60
46752;DHT22;32497;48.936;9.270;2023-06-14T05:19:53;14.70;64.80
46752;DHT22;32497;48.936;9.270;2023-06-14T05:24:55;15.00;65.00
46752;DHT22;32497;48.936;9.270;2023-06-14T05:29:57;15.90;62.30
46752;DHT22;32497;48.936;9.270;2023-06-14T05:34:58;15.90;61.90
46752;DHT22;32497;48.936;9.270;2023-06-14T05:40:00;16.00;61.30
46752;DHT22;32497;48.936;9.270;2023-06-14T05:45:01;16.10;59.90
46752;DHT22;32497;48.936;9.270;2023-06-14T05:50:03;16.50;56.40
46752;DHT22;32497;48.936;9.270;2023-06-14T05:55:06;18.80;51.50
46752;DHT22;32497;48.936;9.270;2023-06-14T06:00:08;18.40;50.70
46752;DHT22;32497;48.936;9.270;2023-06-14T06:05:13;17.80;52.40
46752;DHT22;32497;48.936;9.270;2023-06-14T06:10:16;18.30;51.10
46752;DHT22;32497;48.936;9.270;2023-06-14T06:15:17;19.60;50.60
46752;DHT22;32497;48.936;9.270;2023-06-14T06:20:18;22.70;42.70
46752;DHT22;32497;48.936;9.270;2023-06-14T06:25:20;24.80;36.50
46752;DHT22;32497;48.936;9.270;2023-06-14T06:30:22;26.10;33.30
46752;DHT22;32497;48.936;9.270;2023-06-14T06:35:23;26.70;32.10
46752;DHT22;32497;48.936;9.270;2023-06-14T06:40:25;26.20;33.20
46752;DHT22;32497;48.936;9.270;2023-06-14T06:45:26;25.80;33.20
46752;DHT22;32497;48.936;9.270;2023-06-14T06:50:27;25.40;34.30
46752;DHT22;32497;48.936;9.270;2023-06-14T06:55:30;26.40;33.50
46752;DHT22;32497;48.936;9.270;2023-06-14T07:00:31;26.70;32.70
46752;DHT22;32497;48.936;9.270;2023-06-14T07:05:32;26.80;31.00
46752;DHT22;32497;48.936;9.270;2023-06-14T07:10:35;27.00;31.50
46752;DHT22;32497;48.936;9.270;2023-06-14T07:15:36;26.40;32.20
46752;DHT22;32497;48.936;9.270;2023-06-14T07:20:37;26.50;33.70
46752;DHT22;32497;48.936;9.270;2023-06-14T07:25:39;26.50;34.00
46752;DHT22;32497;48.936;9.270;2023-06-14T07:30:40;26.00;35.50
46752;DHT22;32497;48.936;9.270;2023-06-14T07:35:41;26.10;34.90
46752;DHT22;32497;48.936;9.270;2023-06-14T07:40:44;27.50;33.40
46752;DHT22;32497;48.936;9.270;2023-06-14T07:45:45;27.60;32.60
46752;DHT22;32497;48.936;9.270;2023-06-14T07:50:46;27.50;32.40
46752;DHT22;32497;48.936;9.270;2023-06-14T07:55:49;27.10;33.90
46752;DHT22;32497;48.936;9.270;2023-06-14T08:00:50;26.90;32.80
46752;DHT22;32497;48.936;9.270;2023-06-14T08:05:51;26.90;35.10
46752;DHT22;32497;48.936;9.270;2023-06-14T08:10:54;27.90;33.50
46752;DHT22;32497;48.936;9.270;2023-06-14T08:15:55;27.80;32.60
46752;DHT22;32497;48.936;9.270;2023-06-14T08:20:56;27.40;34.30
46752;DHT22;32497;48.936;9.270;2023-06-14T08:25:58;27.00;34.00
46752;DHT22;32497;48.936;9.270;2023-06-14T08:30:59;26.90;34.80
46752;DHT22;32497;48.936;9.270;2023-06-14T08:36:00;26.70;36.30
46752;DHT22;32497;48.936;9.270;2023-06-14T08:41:05;27.30;34.10
46752;DHT22;32497;48.936;9.270;2023-06-14T08:46:06;26.60;34.20
46752;DHT22;32497;48.936;9.270;2023-06-14T08:51:08;27.20;35.30
46752;DHT22;32497;48.936;9.270;2023-06-14T08:56:12;27.60;35.10
46752;DHT22;32497;48.936;9.270;2023-06-14T09:01:13;27.30;34.90
46752;DHT22;32497;48.936;9.270;2023-06-14T09:06:14;27.90;32.10
46752;DHT22;32497;48.936;9.270;2023-06-14T09:11:18;28.40;31.90
46752;DHT22;32497;48.936;9.270;2023-06-14T09:16:19;27.70;32.80
46752;DHT22;32497;48.936;9.270;2023-06-14T09:21:20;26.00;33.60
46752;DHT22;32497;48.936;9.270;2023-06-14T09:26:22;26.40;32.60
46752;DHT22;32497;48.936;9.270;2023-06-14T09:31:24;27.50;30.00
46752;DHT22;32497;48.936;9.270;2023-06-14T09:36:25;28.10;30.10
46752;DHT22;32497;48.936;9.270;2023-06-14T09:41:35;29.20;29.10
46752;DHT22;32497;48.936;9.270;2023-06-14T09:46:36;28.90;29.50
46752;DHT22;32497;48.936;9.270;2023-06-14T09:51:45;26.10;33.50
46752;DHT22;32497;48.936;9.270;2023-06-14T09:56:48;24.70;37.90
46752;DHT22;32497;48.936;9.270;2023-06-14T10:01:50;25.70;34.40
46752;DHT22;32497;48.936;9.270;2023-06-14T10:06:52;26.20;30.90
46752;DHT22;32497;48.936;9.270;2023-06-14T10:11:56;26.30;33.90
46752;DHT22;32497;48.936;9.270;2023-06-14T10:17:02;25.70;33.70
46752;DHT22;32497;48.936;9.270;2023-06-14T10:22:08;24.90;35.50
46752;DHT22;32497;48.936;9.270;2023-06-14T10:27:13;25.70;33.70
46752;DHT22;32497;48.936;9.270;2023-06-14T10:32:14;27.20;30.60
46752;DHT22;32497;48.936;9.270;2023-06-14T10:37:16;27.20;28.30
46752;DHT22;32497;48.936;9.270;2023-06-14T10:42:18;28.40;30.30
46752;DHT22;32497;48.936;9.270;2023-06-14T10:47:22;30.10;25.40
46752;DHT22;32497;48.936;9.270;2023-06-14T10:52:26;28.90;25.40
46752;DHT22;32497;48.936;9.270;2023-06-14T10:57:29;29.20;26.30
46752;DHT22;32497;48.936;9.270;2023-06-14T11:13:38;27.50;28.40
46752;DHT22;32497;48.936;9.270;2023-06-14T11:18:40;27.60;28.40
46752;DHT22;32497;48.936;9.270;2023-06-14T11:23:42;28.60;28.10
46752;DHT22;32497;48.936;9.270;2023-06-14T11:28:44;29.00;26.20
46752;DHT22;32497;48.936;9.270;2023-06-14T11:33:49;28.10;29.30
46752;DHT22;32497;48.936;9.270;2023-06-14T11:38:58;28.20;29.20
46752;DHT22;32497;48.936;9.270;2023-06-14T11:44:04;29.90;27.50
46752;DHT22;32497;48.936;9.270;2023-06-14T11:49:06;30.10;28.00
46752;DHT22;32497;48.936;9.270;2023-06-14T11:54:07;29.70;25.30
46752;DHT22;32497;48.936;9.270;2023-06-14T11:59:10;29.70;26.00
46752;DHT22;32497;48.936;9.270;2023-06-14T12:04:14;28.90;27.70
46752;DHT22;32497;48.936;9.270;2023-06-14T12:09:18;28.30;29.30
46752;DHT22;32497;48.936;9.270;2023-06-14T12:14:20;28.40;28.70
46752;DHT22;32497;48.936;9.270;2023-06-14T12:19:26;28.00;30.40
46752;DHT22;32497;48.936;9.270;2023-06-14T12:24:28;29.60;27.80
46752;DHT22;32497;48.936;9.270;2023-06-14T12:29:31;30.80;26.80
46752;DHT22;32497;48.936;9.270;2023-06-14T12:34:32;30.50;24.90
46752;DHT22;32497;48.936;9.270;2023-06-14T12:39:33;30.80;26.40
46752;DHT22;32497;48.936;9.270;2023-06-14T12:44:36;30.70;26.00
46752;DHT22;32497;48.936;9.270;2023-06-14T12:49:39;31.40;23.80
46752;DHT22;32497;48.936;9.270;2023-06-14T12:54:40;31.70;25.20
46752;DHT22;32497;48.936;9.270;2023-06-14T12:59:42;30.70;24.40
46752;DHT22;32497;48.936;9.270;2023-06-14T13:04:44;29.80;27.20
46752;DHT22;32497;48.936;9.270;2023-06-14T13:09:45;29.50;27.80
46752;DHT22;32497;48.936;9.270;2023-06-14T13:14:48;30.30;26.20
46752;DHT22;32497;48.936;9.270;2023-06-14T13:19:49;30.80;26.00
46752;DHT22;32497;48.936;9.270;2023-06-14T13:24:50;31.40;25.90
46752;DHT22;32497;48.936;9.270;2023-06-14T13:29:52;31.20;25.30
46752;DHT22;32497;48.936;9.270;2023-06-14T13:34:54;29.50;27.20
46752;DHT22;32497;48.936;9.270;2023-06-14T13:39:55;30.80;26.20
46752;DHT22;32497;48.936;9.270;2023-06-14T13:44:58;31.80;24.40
46752;DHT22;32497;48.936;9.270;2023-06-14T13:49:59;32.20;24.80
46752;DHT22;32497;48.936;9.270;2023-06-14T13:55:00;32.50;24.60
46752;DHT22;32497;48.936;9.270;2023-06-14T14:00:03;30.20;25.90
46752;DHT22;32497;48.936;9.270;2023-06-14T14:05:13;29.40;27.80
46752;DHT22;32497;48.936;9.270;2023-06-14T14:10:14;31.50;25.40
46752;DHT22;32497;48.936;9.270;2023-06-14T14:15:17;32.60;24.20
46752;DHT22;32497;48.936;9.270;2023-06-14T14:20:18;32.40;22.90
46752;DHT22;32497;48.936;9.270;2023-06-14T14:25:19;32.40;23.40
46752;DHT22;32497;48.936;9.270;2023-06-14T14:30:22;31.80;24.00
46752;DHT22;32497;48.936;9.270;2023-06-14T14:35:23;32.10;24.20
46752;DHT22;32497;48.936;9.270;2023-06-14T14:40:24;32.20;24.20
46752;DHT22;32497;48.936;9.270;2023-06-14T14:45:26;32.00;24.00
46752;DHT22;32497;48.936;9.270;2023-06-14T14:50:28;30.40;25.10
46752;DHT22;32497;48.936;9.270;2023-06-14T14:55:29;29.50;26.10
46752;DHT22;32497;48.936;9.270;2023-06-14T15:00:32;29.40;27.30
46752;DHT22;32497;48.936;9.270;2023-06-14T15:05:33;30.50;25.70
46752;DHT22;32497;48.936;9.270;2023-06-14T15:10:35;29.40;25.50
46752;DHT22;32497;48.936;9.270;2023-06-14T15:15:37;28.00;28.60
46752;DHT22;32497;48.936;9.270;2023-06-14T15:20:38;27.40;29.80
46752;DHT22;32497;48.936;9.270;2023-06-14T15:25:39;29.30;27.40
46752;DHT22;32497;48.936;9.270;2023-06-14T15:30:42;29.80;26.80
46752;DHT22;32497;48.936;9.270;2023-06-14T15:35:43;30.20;25.60
46752;DHT22;32497;48.936;9.270;2023-06-14T15:40:44;30.50;26.40
46752;DHT22;32497;48.936;9.270;2023-06-14T15:45:46;30.40;26.10
46752;DHT22;32497;48.936;9.270;2023-06-14T15:50:47;30.70;26.10
46752;DHT22;32497;48.936;9.270;2023-06-14T15:55:48;30.40;26.70
46752;DHT22;32497;48.936;9.270;2023-06-14T16:00:51;30.50;26.00
46752;DHT22;32497;48.936;9.270;2023-06-14T16:05:52;30.20;26.80
46752;DHT22;32497;48.936;9.270;2023-06-14T16:10:53;30.30;26.20
46752;DHT22;32497;48.936;9.270;2023-06-14T16:15:56;29.90;26.70
46752;DHT22;32497;48.936;9.270;2023-06-14T16:20:57;29.00;29.00
46752;DHT22;32497;48.936;9.270;2023-06-14T16:25:58;28.70;29.10
46752;DHT22;32497;48.936;9.270;2023-06-14T16:31:00;28.60;29.70
46752;DHT22;32497;48.936;9.270;2023-06-14T16:36:02;28.10;29.30
46752;DHT22;32497;48.936;9.270;2023-06-14T16:41:03;28.00;29.40
46752;DHT22;32497;48.936;9.270;2023-06-14T16:46:05;27.80;30.60
46752;DHT22;32497;48.936;9.270;2023-06-14T16:51:06;27.60;31.50
46752;DHT22;32497;48.936;9.270;2023-06-14T16:56:07;27.40;30.80
46752;DHT22;32497;48.936;9.270;2023-06-14T17:01:10;27.20;31.20
46752;DHT22;32497;48.936;9.270;2023-06-14T17:06:11;27.20;31.80
46752;DHT22;32497;48.936;9.270;2023-06-14T17:11:12;27.30;31.30
46752;DHT22;32497;48.936;9.270;2023-06-14T17:16:15;27.40;30.80
46752;DHT22;32497;48.936;9.270;2023-06-14T17:21:16;27.20;30.40
46752;DHT22;32497;48.936;9.270;2023-06-14T17:26:17;26.80;32.00
46752;DHT22;32497;48.936;9.270;2023-06-14T17:31:20;26.50;32.80
46752;DHT22;32497;48.936;9.270;2023-06-14T17:36:21;26.10;32.90
46752;DHT22;32497;48.936;9.270;2023-06-14T17:41:22;25.30;34.10
46752;DHT22;32497;48.936;9.270;2023-06-14T17:46:24;24.90;35.10
46752;DHT22;32497;48.936;9.270;2023-06-14T17:51:25;24.50;35.10
46752;DHT22;32497;48.936;9.270;2023-06-14T17:56:27;24.30;36.40
46752;DHT22;32497;48.936;9.270;2023-06-14T18:01:29;24.00;36.30
46752;DHT22;32497;48.936;9.270;2023-06-14T18:06:30;23.90;37.00
46752;DHT22;32497;48.936;9.270;2023-06-14T18:11:31;23.70;37.60
46752;DHT22;32497;48.936;9.270;2023-06-14T18:16:34;23.50;37.90
46752;DHT22;32497;48.936;9.270;2023-06-14T18:21:35;23.30;38.50
46752;DHT22;32497;48.936;9.270;2023-06-14T18:26:36;23.20;39.80
46752;DHT22;32497;48.936;9.270;2023-06-14T18:31:38;23.00;39.70
46752;DHT22;32497;48.936;9.270;2023-06-14T18:36:39;22.90;40.20
46752;DHT22;32497;48.936;9.270;2023-06-14T18:41:40;23.00;39.80
46752;DHT22;32497;48.936;9.270;2023-06-14T18:46:43;23.00;39.10
46752;DHT22;32497;48.936;9.270;2023-06-14T18:51:44;22.90;39.90
46752;DHT22;32497;48.936;9.270;2023-06-14T18:56:45;22.70;40.20
46752;DHT22;32497;48.936;9.270;2023-06-14T19:01:48;22.60;40.70
46752;DHT22;32497;48.936;9.270;2023-06-14T19:06:49;22.40;41.10
46752;DHT22;32497;48.936;9.270;2023-06-14T19:11:50;22.20;41.20
46752;DHT22;32497;48.936;9.270;2023-06-14T19:16:52;22.10;41.40
46752;DHT22;32497;48.936;9.270;2023-06-14T19:21:53;21.80;42.10
46752;DHT22;32497;48.936;9.270;2023-06-14T19:26:54;21.70;42.70
46752;DHT22;32497;48.936;9.270;2023-06-14T19:31:57;21.50;43.00
46752;DHT22;32497;48.936;9.270;2023-06-14T19:36:58;21.40;44.00
46752;DHT22;32497;48.936;9.270;2023-06-14T19:41:59;21.20;43.90
46752;DHT22;32497;48.936;9.270;2023-06-14T19:47:01;21.10;44.60
46752;DHT22;32497;48.936;9.270;2023-06-14T19:52:03;21.00;44.20
46752;DHT22;32497;48.936;9.270;2023-06-14T19:57:05;20.90;44.40
46752;DHT22;32497;48.936;9.270;2023-06-14T20:02:07;21.00;44.40
46752;DHT22;32497;48.936;9.270;2023-06-14T20:07:08;20.90;44.40
46752;DHT22;32497;48.936;9.270;2023-06-14T20:12:10;20.80;44.00
46752;DHT22;32497;48.936;9.270;2023-06-14T20:17:12;20.80;44.70
46752;DHT22;32497;48.936;9.270;2023-06-14T20:22:13;20.70;45.40
46752;DHT22;32497;48.936;9.270;2023-06-14T20:27:14;20.60;45.50
46752;DHT22;32497;48.936;9.270;2023-06-14T20:32:17;20.50;45.00
46752;DHT22;32497;48.936;9.270;2023-06-14T20:37:18;20.40;44.90
46752;DHT22;32497;48.936;9.270;2023-06-14T20:42:19;20.30;45.40
46752;DHT22;32497;48.936;9.270;2023-06-14T20:47:22;20.10;45.90
46752;DHT22;32497;48.936;9.270;2023-06-14T20:52:23;20.00;45.70
46752;DHT22;32497;48.936;9.270;2023-06-14T20:57:24;19.90;45.50
46752;DHT22;32497;48.936;9.270;2023-06-14T21:02:26;19.70;45.90
46752;DHT22;32497;48.936;9.270;2023-06-14T21:07:28;19.70;45.30
46752;DHT22;32497;48.936;9.270;2023-06-14T21:12:29;19.60;45.40
46752;DHT22;32497;48.936;9.270;2023-06-14T21:17:32;19.60;45.00
46752;DHT22;32497;48.936;9.270;2023-06-14T21:22:34;19.40;45.10
46752;DHT22;32497;48.936;9.270;2023-06-14T21:27:35;19.40;46.90
46752;DHT22;32497;48.936;9.270;2023-06-14T21:32:38;19.40;46.00
46752;DHT22;32497;48.936;9.270;2023-06-14T21:37:39;19.40;46.30
46752;DHT22;32497;48.936;9.270;2023-06-14T21:42:40;19.20;46.20
46752;DHT22;32497;48.936;9.270;2023-06-14T21:47:42;19.00;46.90
46752;DHT22;32497;48.936;9.270;2023-06-14T21:52:43;19.00;47.20
46752;DHT22;32497;48.936;9.270;2023-06-14T21:57:45;18.90;48.50
46752;DHT22;32497;48.936;9.270;2023-06-14T22:02:47;18.70;47.70
46752;DHT22;32497;48.936;9.270;2023-06-14T22:07:48;18.50;48.50
46752;DHT22;32497;48.936;9.270;2023-06-14T22:12:49;18.40;49.00
46752;DHT22;32497;48.936;9.270;2023-06-14T22:17:52;18.40;48.40
46752;DHT22;32497;48.936;9.270;2023-06-14T22:22:53;18.30;48.70
46752;DHT22;32497;48.936;9.270;2023-06-14T22:27:54;18.20;49.00
46752;DHT22;32497;48.936;9.270;2023-06-14T22:32:57;18.20;49.50
46752;DHT22;32497;48.936;9.270;2023-06-14T22:37:58;18.10;50.50
46752;DHT22;32497;48.936;9.270;2023-06-14T22:42:59;18.10;49.80
46752;DHT22;32497;48.936;9.270;2023-06-14T22:48:01;17.90;49.80
46752;DHT22;32497;48.936;9.270;2023-06-14T22:53:02;17.80;50.70
46752;DHT22;32497;48.936;9.270;2023-06-14T22:58:04;17.80;50.70
46752;DHT22;32497;48.936;9.270;2023-06-14T23:03:06;17.80;50.90
46752;DHT22;32497;48.936;9.270;2023-06-14T23:08:07;17.70;51.20
46752;DHT22;32497;48.936;9.270;2023-06-14T23:13:08;17.60;51.80
46752;DHT22;32497;48.936;9.270;2023-06-14T23:18:11;17.60;52.30
46752;DHT22;32497;48.936;9.270;2023-06-14T23:23:12;17.60;52.20
46752;DHT22;32497;48.936;9.270;2023-06-14T23:28:13;17.50;52.30
46752;DHT22;32497;48.936;9.270;2023-06-14T23:33:15;17.30;53.40
46752;DHT22;32497;48.936;9.270;2023-06-14T23:38:16;17.30;53.10
46752;DHT22;32497;48.936;9.270;2023-06-14T23:43:18;17.20;53.00
46752;DHT22;32497;48.936;9.270;2023-06-14T23:48:20;17.20;53.70
46752;DHT22;32497;48.936;9.270;2023-06-14T23:53:22;17.10;53.70
46752;DHT22;32497;48.936;9.270;2023-06-14T23:58:23;17.00;54.10
